createdAt,value
2018-03-30T00:58:45.244Z,19.10
2018-03-30T01:01:13.750Z,21.87
2018-03-30T01:03:41.327Z,19.53
2018-03-30T01:06:08.901Z,28.10
2018-03-30T01:08:37.541Z,22.95
2018-03-30T01:11:09.963Z,22.90
2018-03-30T01:13:37.504Z,24.07
2018-03-30T01:16:05.052Z,22.33
2018-03-30T01:18:32.962Z,20.10
2018-03-30T01:21:01.504Z,24.97
2018-03-30T01:23:29.083Z,26.73
2018-03-30T01:25:56.655Z,23.95
2018-03-30T01:28:24.201Z,26.50
2018-03-30T01:30:51.858Z,27.90
2018-03-30T01:33:19.463Z,29.50
2018-03-30T01:35:47.014Z,26.07
2018-03-30T01:38:15.356Z,28.47
2018-03-30T01:40:42.993Z,28.47
2018-03-30T01:43:10.538Z,27.00
2018-03-30T01:45:38.080Z,27.90
2018-03-30T01:48:05.844Z,29.13
2018-03-30T01:50:33.664Z,27.30
2018-03-30T01:53:01.222Z,29.07
2018-03-30T01:55:28.826Z,26.87
2018-03-30T01:57:56.398Z,34.20
2018-03-30T02:00:24.451Z,31.27
2018-03-30T02:02:52.649Z,30.63
2018-03-30T02:05:20.247Z,29.10
2018-03-30T02:07:47.825Z,34.67
2018-03-30T02:10:15.691Z,37.28
2018-03-30T02:12:43.271Z,31.10
2018-03-30T02:15:10.824Z,33.47
2018-03-30T02:17:38.584Z,33.60
2018-03-30T02:20:06.173Z,31.03
2018-03-30T02:22:33.721Z,34.17
2018-03-30T02:25:01.597Z,36.00
2018-03-30T02:27:29.135Z,33.40
2018-03-30T02:29:56.747Z,34.00
2018-03-30T02:32:25.144Z,35.00
2018-03-30T02:34:52.720Z,33.40
2018-03-30T02:37:20.333Z,33.40
2018-03-30T02:39:48.116Z,34.30
2018-03-30T02:42:17.288Z,31.58
2018-03-30T02:44:44.832Z,34.87
2018-03-30T02:47:13.211Z,34.40
2018-03-30T02:49:40.784Z,28.50
2018-03-30T02:52:08.348Z,29.65
2018-03-30T02:54:35.937Z,33.17
2018-03-30T02:57:03.472Z,31.73
2018-03-30T02:59:31.416Z,32.57
2018-03-30T03:01:59.545Z,30.57
2018-03-30T03:04:27.115Z,32.40
2018-03-30T03:06:54.687Z,30.67
2018-03-30T03:09:22.899Z,30.37
2018-03-30T03:11:50.436Z,34.15
2018-03-30T03:14:18.044Z,30.80
2018-03-30T03:16:45.802Z,32.73
2018-03-30T03:19:34.957Z,34.83
2018-03-30T03:30:39.040Z,35.70
2018-03-30T03:33:07.543Z,29.87
2018-03-30T03:35:35.092Z,27.53
2018-03-30T03:38:02.655Z,31.40
2018-03-30T03:40:30.980Z,31.17
2018-03-30T03:42:58.528Z,29.90
2018-03-30T03:45:26.143Z,32.77
2018-03-30T03:47:53.764Z,28.70
2018-03-30T03:50:21.395Z,30.07
2018-03-30T03:52:49.551Z,28.43
2018-03-30T03:55:17.088Z,26.50
2018-03-30T03:57:44.668Z,27.20
2018-03-30T04:00:12.309Z,29.60
2018-03-30T04:02:40.096Z,30.80
2018-03-30T04:05:07.686Z,30.00
2018-03-30T04:07:35.333Z,32.83
2018-03-30T04:10:02.945Z,28.90
2018-03-30T04:12:30.698Z,24.95
2018-03-30T04:14:58.343Z,32.93
2018-03-30T04:17:26.028Z,27.93
2018-03-30T04:19:53.697Z,29.30
2018-03-30T04:22:21.315Z,28.73
2018-03-30T04:24:48.931Z,27.30
2018-03-30T04:27:31.212Z,29.33
2018-03-30T04:29:58.875Z,28.83
2018-03-30T04:32:26.418Z,32.30
2018-03-30T04:34:54.485Z,28.37
2018-03-30T04:37:22.098Z,27.97
2018-03-30T04:39:49.640Z,30.30
2018-03-30T04:42:17.248Z,32.73
2018-03-30T04:44:44.807Z,29.30
2018-03-30T04:47:12.338Z,35.57
2018-03-30T04:49:40.021Z,30.37
2018-03-30T04:52:07.585Z,27.70
2018-03-30T04:54:35.225Z,24.97
2018-03-30T04:57:05.688Z,30.90
2018-03-30T04:59:33.232Z,29.90
2018-03-30T05:02:00.781Z,28.47
2018-03-30T05:04:28.920Z,24.83
2018-03-30T05:06:56.456Z,25.42
2018-03-30T05:09:24.196Z,22.93
2018-03-30T05:11:52.576Z,26.17
2018-03-30T05:14:20.202Z,21.45
2018-03-30T05:16:47.756Z,25.87
2018-03-30T05:19:16.848Z,25.55
2018-03-30T05:21:44.455Z,22.87
2018-03-30T05:24:11.991Z,22.33
2018-03-30T05:26:39.575Z,24.87
2018-03-30T05:29:07.116Z,25.53
2018-03-30T05:31:34.651Z,26.50
2018-03-30T05:34:02.221Z,24.80
2018-03-30T05:36:29.820Z,34.40
2018-03-30T05:38:57.363Z,29.30
2018-03-30T05:41:25.155Z,27.40
2018-03-30T05:43:52.692Z,29.50
2018-03-30T05:46:20.236Z,40.20
2018-03-30T05:48:47.813Z,28.40
2018-03-30T05:51:15.805Z,26.17
2018-03-30T05:53:43.419Z,28.00
2018-03-30T05:56:10.988Z,27.10
2018-03-30T05:58:38.519Z,25.60
2018-03-30T06:01:06.056Z,22.87
2018-03-30T06:03:33.676Z,27.40
2018-03-30T06:06:01.455Z,27.73
2018-03-30T06:08:29.054Z,25.55
2018-03-30T06:10:56.683Z,26.02
2018-03-30T06:13:24.233Z,26.90
2018-03-30T06:15:51.776Z,22.60
2018-03-30T06:20:55.148Z,21.33
2018-03-30T06:23:22.755Z,24.10
2018-03-30T06:25:54.380Z,20.90
2018-03-30T06:28:21.919Z,18.40
2018-03-30T06:44:45.672Z,22.93
2018-03-30T06:47:15.505Z,19.70
2018-03-30T06:49:43.271Z,20.30
2018-03-30T06:52:12.658Z,21.70
2018-03-30T06:57:46.959Z,22.57
2018-03-30T07:11:58.446Z,24.63
2018-03-30T07:17:34.048Z,15.18
2018-03-30T07:23:07.967Z,16.33
2018-03-30T07:25:42.553Z,17.33
2018-03-30T07:28:10.895Z,13.27
2018-03-30T07:30:38.433Z,13.55
2018-03-30T07:33:06.704Z,14.33
2018-03-30T07:35:35.780Z,14.80
2018-03-30T07:38:03.380Z,13.43
2018-03-30T07:40:31.009Z,11.90
2018-03-30T07:42:58.653Z,13.60
2018-03-30T07:45:29.823Z,14.52
2018-03-30T07:47:57.368Z,14.43
2018-03-30T07:50:24.950Z,13.00
2018-03-30T07:52:52.508Z,12.77
2018-03-30T07:55:20.047Z,11.02
2018-03-30T07:57:47.636Z,13.00
2018-03-30T08:00:16.412Z,12.62
2018-03-30T08:02:43.957Z,12.70
2018-03-30T08:05:12.284Z,11.80
2018-03-30T08:07:41.540Z,11.27
2018-03-30T08:10:09.520Z,8.93
2018-03-30T08:12:37.265Z,10.97
2018-03-30T08:15:04.949Z,9.37
2018-03-30T08:17:32.613Z,10.50
2018-03-30T08:20:00.301Z,10.33
2018-03-30T08:22:27.964Z,10.80
2018-03-30T08:24:55.530Z,10.82
2018-03-30T08:27:23.131Z,21.67
2018-03-30T08:29:51.436Z,14.73
2018-03-30T08:32:18.973Z,9.70
2018-03-30T08:34:46.648Z,11.83
2018-03-30T08:37:27.249Z,9.40
2018-03-30T08:42:58.866Z,6.87
2018-03-30T08:45:27.177Z,6.70
2018-03-30T08:47:54.708Z,6.80
2018-03-30T08:50:23.036Z,5.30
2018-03-30T08:52:50.584Z,7.97
2018-03-30T08:55:18.189Z,4.47
2018-03-30T08:57:45.768Z,5.07
2018-03-30T09:00:27.028Z,5.70
2018-03-30T09:06:05.181Z,3.00
2018-03-30T09:08:32.976Z,4.25
2018-03-30T09:11:00.716Z,3.77
2018-03-30T09:13:28.389Z,4.85
2018-03-30T09:15:56.155Z,4.40
2018-03-30T09:18:23.785Z,4.17
2018-03-30T09:20:51.550Z,5.47
2018-03-30T09:23:20.005Z,4.93
2018-03-30T09:25:48.590Z,6.10
2018-03-30T09:28:16.475Z,4.50
2018-03-30T09:30:44.506Z,5.50
2018-03-30T09:33:17.704Z,5.77
2018-03-30T09:35:45.377Z,6.17
2018-03-30T09:38:25.311Z,5.50
2018-03-30T09:47:08.396Z,6.47
2018-03-30T09:49:35.943Z,9.27
2018-03-30T09:52:03.472Z,9.65
2018-03-30T09:54:31.035Z,10.53
2018-03-30T09:56:58.572Z,9.10
2018-03-30T09:59:26.871Z,14.40
2018-03-30T10:01:54.444Z,22.25
2018-03-30T10:04:23.789Z,14.83
2018-03-30T10:06:57.320Z,8.63
2018-03-30T10:09:25.631Z,9.03
2018-03-30T10:11:53.185Z,5.83
2018-03-30T10:14:23.330Z,7.15
2018-03-30T10:16:51.699Z,7.03
2018-03-30T10:19:19.244Z,6.33
2018-03-30T10:21:51.450Z,6.90
2018-03-30T10:24:19.692Z,6.10
2018-03-30T10:26:47.788Z,10.63
2018-03-30T10:29:16.523Z,5.75
2018-03-30T10:31:46.175Z,6.10
2018-03-30T10:37:06.314Z,6.10
2018-03-30T10:39:38.109Z,5.60
2018-03-30T10:42:07.714Z,5.40
2018-03-30T10:44:37.971Z,6.47
2018-03-30T10:47:06.046Z,5.43
2018-03-30T10:49:34.635Z,4.50
2018-03-30T10:52:02.292Z,4.93
2018-03-30T10:54:37.096Z,3.83
2018-03-30T10:57:04.749Z,3.73
2018-03-30T10:59:35.726Z,3.27
2018-03-30T11:02:03.396Z,3.03
2018-03-30T11:04:32.364Z,3.25
2018-03-30T11:06:59.994Z,2.80
2018-03-30T11:09:28.118Z,3.85
2018-03-30T11:11:55.806Z,2.60
2018-03-30T11:14:23.512Z,2.80
2018-03-30T11:16:51.241Z,2.80
2018-03-30T11:19:23.444Z,2.90
2018-03-30T11:21:51.136Z,2.73
2018-03-30T11:24:18.803Z,4.10
2018-03-30T11:26:46.461Z,2.97
2018-03-30T11:29:26.168Z,2.97
2018-03-30T11:34:38.561Z,1.90
2018-03-30T11:37:07.703Z,1.80
2018-03-30T11:39:35.326Z,2.00
2018-03-30T11:42:03.825Z,2.03
2018-03-30T11:44:31.424Z,2.15
2018-03-30T11:46:59.045Z,2.10
2018-03-30T11:49:26.844Z,8.67
2018-03-30T11:51:54.469Z,2.70
2018-03-30T11:54:22.084Z,2.72
2018-03-30T11:56:49.720Z,2.33
2018-03-30T11:59:17.331Z,2.20
2018-03-30T12:01:45.008Z,1.73
2018-03-30T12:04:12.664Z,1.60
2018-03-30T12:06:41.058Z,2.10
2018-03-30T12:09:08.738Z,2.10
2018-03-30T12:11:38.675Z,2.50
2018-03-30T12:14:06.309Z,2.40
2018-03-30T12:16:33.858Z,2.30
2018-03-30T12:19:01.505Z,2.43
2018-03-30T12:21:29.063Z,2.00
2018-03-30T12:23:57.406Z,3.00
2018-03-30T12:26:25.588Z,2.30
2018-03-30T12:28:53.297Z,5.63
2018-03-30T12:31:20.898Z,2.37
2018-03-30T12:33:48.493Z,2.70
2018-03-30T12:38:52.456Z,2.77
2018-03-30T12:41:20.076Z,3.30
2018-03-30T12:43:47.678Z,2.20
2018-03-30T12:46:16.906Z,2.30
2018-03-30T12:48:44.563Z,2.05
2018-03-30T12:51:13.226Z,1.93
2018-03-30T12:53:40.862Z,2.60
2018-03-30T12:56:09.184Z,2.00
2018-03-30T12:58:36.729Z,2.00
2018-03-30T13:01:04.428Z,3.90
2018-03-30T13:03:31.997Z,3.17
2018-03-30T13:05:59.685Z,2.20
2018-03-30T13:08:28.113Z,2.60
2018-03-30T13:10:55.825Z,2.40
2018-03-30T13:13:23.528Z,2.23
2018-03-30T13:15:51.108Z,3.27
2018-03-30T13:18:18.694Z,2.60
2018-03-30T13:20:46.264Z,3.00
2018-03-30T13:23:25.576Z,5.12
2018-03-30T13:30:50.683Z,3.40
2018-03-30T13:33:19.064Z,3.90
2018-03-30T13:35:46.693Z,3.40
2018-03-30T13:38:26.615Z,4.65
2018-03-30T13:51:42.375Z,8.30
2018-03-30T13:54:19.926Z,4.10
2018-03-30T13:56:49.301Z,4.72
2018-03-30T13:59:29.483Z,4.80
2018-03-30T14:02:07.985Z,5.63
2018-03-30T14:04:37.371Z,6.63
2018-03-30T14:07:08.575Z,6.03
2018-03-30T14:09:36.177Z,5.97
2018-03-30T14:15:00.201Z,6.50
2018-03-30T14:17:48.260Z,7.60
2018-03-30T14:23:29.409Z,14.13
2018-03-30T14:26:13.496Z,10.40
2018-03-30T14:28:52.220Z,7.63
2018-03-30T14:31:30.484Z,6.10
2018-03-30T14:34:00.584Z,9.83
2018-03-30T14:36:34.851Z,6.65
2018-03-30T14:39:08.163Z,10.43
2018-03-30T14:41:35.792Z,6.90
2018-03-30T14:44:07.556Z,6.83
2018-03-30T14:46:41.517Z,7.47
2018-03-30T14:49:12.984Z,6.67
2018-03-30T14:52:14.222Z,6.10
2018-03-30T14:54:43.708Z,7.47
2018-03-30T14:57:12.016Z,7.20
2018-03-30T14:59:53.625Z,6.67
2018-03-30T15:02:28.836Z,6.70
2018-03-30T15:05:07.993Z,6.63
2018-03-30T15:07:42.409Z,7.47
2018-03-30T15:10:15.180Z,6.97
2018-03-30T15:12:48.459Z,8.57
2018-03-30T15:21:22.828Z,6.23
2018-03-30T15:23:50.373Z,6.20
2018-03-30T15:26:17.930Z,7.20
2018-03-30T15:28:52.043Z,7.20
2018-03-30T15:34:38.892Z,8.00
2018-03-30T15:37:15.083Z,7.67
2018-03-30T15:42:49.974Z,7.73
2018-03-30T15:48:31.701Z,6.93
2018-03-30T15:50:59.328Z,8.50
2018-03-30T15:53:26.453Z,9.03
2018-03-30T15:55:54.071Z,7.80
2018-03-30T15:58:21.710Z,7.83
2018-03-30T16:00:49.268Z,6.83
2018-03-30T16:03:16.820Z,7.70
2018-03-30T16:05:44.401Z,8.80
2018-03-30T16:08:12.009Z,8.00
2018-03-30T16:10:43.836Z,7.23
2018-03-30T16:13:12.180Z,7.18
2018-03-30T16:15:40.148Z,8.20
2018-03-30T16:18:07.745Z,7.10
2018-03-30T16:20:34.912Z,7.00
2018-03-30T16:23:02.013Z,7.87
2018-03-30T16:25:29.116Z,6.80
2018-03-30T16:27:56.221Z,6.30
2018-03-30T16:30:23.277Z,7.00
2018-03-30T16:32:50.347Z,7.93
2018-03-30T16:35:17.504Z,8.77
2018-03-30T16:37:44.580Z,8.00
2018-03-30T16:40:13.323Z,14.10
2018-03-30T16:42:40.490Z,7.97
2018-03-30T16:45:07.559Z,8.30
2018-03-30T16:47:34.627Z,9.00
2018-03-30T16:50:01.731Z,14.33
2018-03-30T16:52:30.076Z,9.53
2018-03-30T16:54:57.136Z,8.00
2018-03-30T16:57:24.266Z,8.70
2018-03-30T16:59:52.431Z,9.07
2018-03-30T17:02:20.380Z,7.00
2018-03-30T17:04:48.243Z,9.77
2018-03-30T17:07:16.704Z,8.80
2018-03-30T17:09:43.776Z,8.07
2018-03-30T17:12:10.879Z,9.40
2018-03-30T17:14:37.950Z,8.00
2018-03-30T17:17:05.412Z,9.35
2018-03-30T17:19:32.871Z,7.47
2018-03-30T17:22:00.006Z,8.30
2018-03-30T17:24:30.318Z,8.57
2018-03-30T17:26:58.289Z,8.27
2018-03-30T17:29:25.360Z,8.80
2018-03-30T17:31:52.427Z,7.60
2018-03-30T17:34:19.648Z,8.23
2018-03-30T17:36:46.808Z,8.60
2018-03-30T17:39:16.003Z,8.10
2018-03-30T17:41:44.289Z,8.60
2018-03-30T17:44:11.350Z,10.43
2018-03-30T17:46:38.416Z,9.00
2018-03-30T17:49:06.272Z,9.50
2018-03-30T17:51:33.477Z,10.18
2018-03-30T17:54:00.527Z,12.00
2018-03-30T17:56:27.603Z,8.27
2018-03-30T17:58:54.807Z,9.50
2018-03-30T18:01:21.876Z,8.05
2018-03-30T18:03:49.064Z,10.03
2018-03-30T18:06:16.175Z,8.90
2018-03-30T18:08:43.231Z,9.07
2018-03-30T18:11:10.352Z,8.17
2018-03-30T18:13:37.421Z,7.70
2018-03-30T18:16:04.500Z,8.30
2018-03-30T18:18:32.773Z,7.20
2018-03-30T18:20:59.891Z,7.03
2018-03-30T18:23:27.118Z,7.70
2018-03-30T18:25:54.863Z,10.97
2018-03-30T18:28:21.936Z,6.87
2018-03-30T18:30:49.034Z,6.70
2018-03-30T18:33:16.124Z,8.17
2018-03-30T18:35:43.197Z,6.83
2018-03-30T18:38:10.247Z,7.10
2018-03-30T18:40:37.393Z,7.20
2018-03-30T18:43:05.345Z,7.40
2018-03-30T18:45:32.416Z,6.90
2018-03-30T18:47:59.843Z,5.63
2018-03-30T18:50:27.804Z,7.07
2018-03-30T18:52:57.548Z,7.13
2018-03-30T18:55:24.628Z,6.10
2018-03-30T18:57:51.675Z,7.13
2018-03-30T19:00:18.724Z,7.07
2018-03-30T19:02:45.908Z,7.33
2018-03-30T19:05:14.191Z,7.68
2018-03-30T19:15:36.353Z,12.80
2018-03-30T19:18:03.421Z,9.43
2018-03-30T19:20:30.715Z,11.03
2018-03-30T19:22:57.792Z,9.13
2018-03-30T19:25:24.869Z,9.37
2018-03-30T19:27:52.701Z,11.03
2018-03-30T19:30:19.806Z,10.52
2018-03-30T19:32:46.977Z,10.30
2018-03-30T19:35:15.900Z,16.53
2018-03-30T19:37:44.660Z,10.18
2018-03-30T19:40:11.737Z,11.23
2018-03-30T19:42:38.828Z,9.50
2018-03-30T19:45:06.696Z,10.63
2018-03-30T19:47:34.512Z,10.93
2018-03-30T19:50:01.564Z,9.43
2018-03-30T19:52:28.723Z,10.10
2018-03-30T19:54:55.882Z,10.37
2018-03-30T19:57:23.746Z,9.27
2018-03-30T19:59:51.546Z,9.83
2018-03-30T20:02:18.652Z,10.03
2018-03-30T20:04:45.723Z,9.63
2018-03-30T20:07:14.132Z,9.07
2018-03-30T20:09:41.179Z,8.60
2018-03-30T20:12:08.225Z,8.70
2018-03-30T20:14:36.557Z,8.57
2018-03-30T20:17:03.706Z,10.07
2018-03-30T20:19:30.822Z,12.10
2018-03-30T20:21:58.631Z,12.60
2018-03-30T20:24:25.675Z,14.13
2018-03-30T20:26:52.924Z,11.10
2018-03-30T20:29:20.005Z,8.95
2018-03-30T20:31:47.824Z,10.82
2018-03-30T20:34:15.970Z,10.73
2018-03-30T20:36:43.068Z,12.10
2018-03-30T20:39:10.220Z,14.30
2018-03-30T20:41:37.264Z,15.33
2018-03-30T20:44:04.714Z,10.73
2018-03-30T20:46:31.840Z,14.13
2018-03-30T20:48:59.043Z,12.00
2018-03-30T20:51:26.996Z,12.88
2018-03-30T20:53:55.021Z,13.43
2018-03-30T20:56:22.152Z,11.45
2018-03-30T20:58:49.228Z,14.07
2018-03-30T21:01:16.289Z,10.03
2018-03-30T21:03:45.377Z,9.43
2018-03-30T21:06:14.896Z,10.02
2018-03-30T21:08:41.988Z,8.80
2018-03-30T21:11:09.426Z,11.90
2018-03-30T21:13:36.713Z,8.13
2018-03-30T21:16:03.806Z,10.07
2018-03-30T21:18:31.672Z,11.18
2018-03-30T21:20:58.911Z,8.90
2018-03-30T21:23:26.386Z,7.25
2018-03-30T21:25:53.463Z,8.43
2018-03-30T21:28:20.614Z,8.13
2018-03-30T21:30:48.436Z,7.07
2018-03-30T21:33:15.946Z,7.90
2018-03-30T21:35:43.100Z,9.02
2018-03-30T21:38:10.197Z,11.67
2018-03-30T21:40:37.247Z,11.90
2018-03-30T21:43:04.348Z,12.57
2018-03-30T21:45:34.098Z,13.17
2018-03-30T21:48:01.269Z,14.27
2018-03-30T21:50:29.140Z,15.03
2018-03-30T21:52:56.988Z,15.80
2018-03-30T21:55:24.047Z,14.80
2018-03-30T21:57:51.340Z,16.53
2018-03-30T22:00:19.500Z,17.35
2018-03-30T22:02:46.809Z,17.60
2018-03-30T22:05:16.077Z,15.18
2018-03-30T22:07:43.124Z,19.70
2018-03-30T22:10:10.167Z,15.50
2018-03-30T22:12:37.781Z,22.10
2018-03-30T22:15:04.837Z,21.90
2018-03-30T22:17:31.878Z,16.60
2018-03-30T22:19:59.153Z,18.70
2018-03-30T22:22:26.260Z,17.43
2018-03-30T22:24:53.605Z,19.57
2018-03-30T22:27:20.809Z,17.73
2018-03-30T22:29:47.914Z,15.23
2018-03-30T22:32:14.998Z,15.30
2018-03-30T22:34:42.747Z,14.47
2018-03-30T22:37:09.800Z,13.90
2018-03-30T22:39:36.856Z,15.20
2018-03-30T22:42:03.929Z,12.97
2018-03-30T22:44:31.742Z,13.10
2018-03-30T22:46:58.820Z,12.80
2018-03-30T22:49:25.898Z,11.90
2018-03-30T22:51:52.986Z,11.95
2018-03-30T22:54:20.364Z,11.86
2018-03-30T22:56:48.327Z,13.40
2018-03-30T22:59:16.796Z,11.15
2018-03-30T23:01:43.845Z,9.38
2018-03-30T23:04:10.926Z,9.67
2018-03-30T23:06:37.998Z,13.38
2018-03-30T23:09:05.047Z,12.87
2018-03-30T23:11:32.898Z,8.38
2018-03-30T23:13:59.944Z,9.93
2018-03-30T23:16:27.003Z,8.43
2018-03-30T23:18:54.961Z,7.43
2018-03-30T23:21:22.015Z,7.93
2018-03-30T23:23:49.848Z,7.87
2018-03-30T23:26:17.608Z,7.60
2018-03-30T23:28:44.648Z,7.07
2018-03-30T23:31:11.716Z,10.43
2018-03-30T23:33:38.791Z,8.00
2018-03-30T23:36:06.616Z,8.07
2018-03-30T23:38:33.665Z,7.10
2018-03-30T23:41:01.032Z,7.17
2018-03-30T23:43:28.078Z,6.60
2018-03-30T23:45:55.120Z,6.60
2018-03-30T23:48:22.205Z,7.00
2018-03-30T23:50:50.013Z,6.17
2018-03-30T23:53:17.059Z,7.10
2018-03-30T23:55:44.156Z,7.20
2018-03-30T23:58:11.216Z,6.67
